UAL2143 KEWR-TJSJ
Flight info
| Callsign | UAL2143 |
|---|---|
| Flight time | N/A |
| Altitude | 37000 |
| Route | ELVAE DCT NECCK DCT DIXIE Y481 OHRYN/N0468F380 Y489 BEHHR/M082F380 Y489 RESQU/M082F370 DCT SKPPR L455 TASNI/M082F390 L455 KINCH/N0472F390 L455 LENNT M423 PLING RTE7 SAALR |
| Aircraft | B764/H-SDE3FGHIM3RWXY/LB1 |
Departure
| Time | 2026-04-24 22:31 |
|---|---|
| Airport | Newark Liberty International Airport (KEWR) |
Arrival
| Time | N/A |
|---|---|
| Airport | Luis Munoz Marin International Airport (TJSJ) |
| Time | Latitude | Longitude | Altitude | Speed | Heading |
|---|---|---|---|---|---|
| 2026-04-24 22:23 | 40.69336 | -74.17466 | 28 ft | 0 kts | 77° |
| 2026-04-24 22:25 | 40.69337 | -74.17462 | 28 ft | 2 kts | 77° |
| 2026-04-24 22:26 | 40.69342 | -74.17409 | 28 ft | 9 kts | 92° |
| 2026-04-24 22:26 | 40.69306 | -74.17303 | 28 ft | 13 kts | 122° |
| 2026-04-24 22:26 | 40.69264 | -74.17210 | 28 ft | 12 kts | 119° |
| 2026-04-24 22:26 | 40.69201 | -74.17089 | 28 ft | 17 kts | 150° |
| 2026-04-24 22:27 | 40.69087 | -74.17110 | 28 ft | 19 kts | 211° |
| 2026-04-24 22:27 | 40.68958 | -74.17205 | 28 ft | 23 kts | 205° |
| 2026-04-24 22:27 | 40.68805 | -74.17297 | 28 ft | 25 kts | 205° |
| 2026-04-24 22:27 | 40.68656 | -74.17390 | 28 ft | 24 kts | 205° |
| 2026-04-24 22:28 | 40.68516 | -74.17480 | 28 ft | 22 kts | 206° |
| 2026-04-24 22:28 | 40.68366 | -74.17577 | 28 ft | 25 kts | 206° |
| 2026-04-24 22:28 | 40.68194 | -74.17688 | 28 ft | 29 kts | 206° |
| 2026-04-24 22:28 | 40.67997 | -74.17812 | 28 ft | 32 kts | 205° |
| 2026-04-24 22:29 | 40.67649 | -74.18031 | 28 ft | 14 kts | 203° |
| 2026-04-24 22:29 | 40.67585 | -74.18015 | 28 ft | 8 kts | 131° |
| 2026-04-24 22:29 | 40.67572 | -74.17956 | 28 ft | 5 kts | 82° |
| 2026-04-24 22:30 | 40.67591 | -74.17919 | 28 ft | 4 kts | 37° |
| 2026-04-24 22:30 | 40.67618 | -74.17896 | 28 ft | 5 kts | 32° |
| 2026-04-24 22:30 | 40.67655 | -74.17867 | 28 ft | 8 kts | 29° |
| 2026-04-24 22:30 | 40.67808 | -74.17767 | 28 ft | 52 kts | 26° |
| 2026-04-24 22:31 | 40.68334 | -74.17435 | 28 ft | 114 kts | 26° |
| 2026-04-24 22:31 | 40.69214 | -74.16861 | 49 ft | 166 kts | 28° |
| 2026-04-24 22:31 | 40.70295 | -74.16169 | 621 ft | 174 kts | 29° |
| 2026-04-24 22:31 | 40.71287 | -74.15440 | 1465 ft | 168 kts | 32° |
| 2026-04-24 22:32 | 40.72287 | -74.14519 | 1887 ft | 182 kts | 43° |
| 2026-04-24 22:32 | 40.73254 | -74.13348 | 2298 ft | 192 kts | 37° |
| 2026-04-24 22:32 | 40.74318 | -74.12240 | 2687 ft | 205 kts | 38° |
| 2026-04-24 22:32 | 40.75479 | -74.11346 | 3331 ft | 199 kts | 9° |
| 2026-04-24 22:33 | 40.76445 | -74.11452 | 3875 ft | 190 kts | 334° |
| 2026-04-24 22:33 | 40.77404 | -74.12657 | 4080 ft | 212 kts | 297° |
| 2026-04-24 22:33 | 40.77838 | -74.14683 | 4222 ft | 243 kts | 275° |
| 2026-04-24 22:33 | 40.77676 | -74.16937 | 4821 ft | 257 kts | 256° |
| 2026-04-24 22:34 | 40.76837 | -74.19076 | 5439 ft | 274 kts | 230° |
| 2026-04-24 22:34 | 40.75337 | -74.20440 | 6487 ft | 277 kts | 205° |
| 2026-04-24 22:34 | 40.73386 | -74.20869 | 7169 ft | 294 kts | 185° |
| 2026-04-24 22:34 | 40.71321 | -74.20852 | 7819 ft | 304 kts | 185° |
| 2026-04-24 22:35 | 40.69206 | -74.20847 | 8568 ft | 310 kts | 186° |
| 2026-04-24 22:35 | 40.66999 | -74.20866 | 9262 ft | 317 kts | 189° |
| 2026-04-24 22:35 | 40.64838 | -74.21312 | 9997 ft | 314 kts | 204° |
| 2026-04-24 22:35 | 40.62772 | -74.22250 | 10474 ft | 325 kts | 211° |
| 2026-04-24 22:36 | 40.60614 | -74.23556 | 10617 ft | 352 kts | 214° |
| 2026-04-24 22:36 | 40.58365 | -74.25055 | 10751 ft | 383 kts | 213° |
| 2026-04-24 22:36 | 40.55769 | -74.26241 | 11453 ft | 408 kts | 198° |
| 2026-04-24 22:36 | 40.52859 | -74.26522 | 12413 ft | 425 kts | 181° |
| 2026-04-24 22:37 | 40.49944 | -74.25878 | 13245 ft | 442 kts | 167° |
| 2026-04-24 22:37 | 40.47087 | -74.24332 | 14310 ft | 448 kts | 156° |
| 2026-04-24 22:37 | 40.44227 | -74.22677 | 15247 ft | 453 kts | 161° |
| 2026-04-24 22:37 | 40.41299 | -74.21143 | 16245 ft | 458 kts | 161° |
| 2026-04-24 22:38 | 40.38312 | -74.19609 | 17184 ft | 465 kts | 162° |
| 2026-04-24 22:38 | 40.35292 | -74.18081 | 18183 ft | 469 kts | 162° |
| 2026-04-24 22:38 | 40.32177 | -74.16803 | 19153 ft | 469 kts | 172° |
| 2026-04-24 22:38 | 40.28953 | -74.16196 | 19994 ft | 472 kts | 181° |
| 2026-04-24 22:39 | 40.25669 | -74.16164 | 20769 ft | 477 kts | 185° |
| 2026-04-24 22:39 | 40.22329 | -74.15871 | 21696 ft | 487 kts | 176° |
| 2026-04-24 22:39 | 40.18971 | -74.14889 | 22457 ft | 498 kts | 166° |
| 2026-04-24 22:39 | 40.15762 | -74.13253 | 23198 ft | 508 kts | 157° |
| 2026-04-24 22:40 | 40.12709 | -74.10954 | 24095 ft | 512 kts | 147° |
| 2026-04-24 22:40 | 40.09872 | -74.08051 | 24680 ft | 522 kts | 137° |
| 2026-04-24 22:40 | 40.07368 | -74.04606 | 25302 ft | 528 kts | 128° |
| 2026-04-24 22:40 | 40.05262 | -74.00700 | 25983 ft | 529 kts | 118° |
| 2026-04-24 22:41 | 40.03593 | -73.96426 | 26560 ft | 532 kts | 109° |
| 2026-04-24 22:41 | 40.02428 | -73.91898 | 27295 ft | 527 kts | 99° |
| 2026-04-24 22:41 | 40.01758 | -73.87178 | 27808 ft | 526 kts | 91° |
| 2026-04-24 22:41 | 40.01535 | -73.82447 | 28157 ft | 529 kts | 87° |
| 2026-04-24 22:42 | 40.01179 | -73.77676 | 28855 ft | 534 kts | 92° |
| 2026-04-24 22:42 | 40.00553 | -73.72888 | 29363 ft | 539 kts | 95° |
| 2026-04-24 22:42 | 39.99799 | -73.68187 | 30142 ft | 536 kts | 96° |
| 2026-04-24 22:42 | 39.98958 | -73.63431 | 30658 ft | 538 kts | 97° |
| 2026-04-24 22:43 | 39.98061 | -73.58682 | 31207 ft | 538 kts | 98° |
| 2026-04-24 22:43 | 39.97135 | -73.53930 | 31715 ft | 539 kts | 99° |
| 2026-04-24 22:43 | 39.96191 | -73.49210 | 32091 ft | 542 kts | 99° |
| 2026-04-24 22:43 | 39.95231 | -73.44488 | 32538 ft | 544 kts | 99° |
| 2026-04-24 22:44 | 39.94253 | -73.39726 | 33071 ft | 543 kts | 99° |
| 2026-04-24 22:44 | 39.93277 | -73.35014 | 33583 ft | 542 kts | 99° |
| 2026-04-24 22:44 | 39.92285 | -73.30233 | 33941 ft | 544 kts | 100° |
| 2026-04-24 22:44 | 39.91294 | -73.25470 | 34320 ft | 546 kts | 100° |
| 2026-04-24 22:45 | 39.90295 | -73.20716 | 34906 ft | 543 kts | 99° |
| 2026-04-24 22:45 | 39.89308 | -73.16018 | 35550 ft | 539 kts | 99° |
| 2026-04-24 22:45 | 39.88328 | -73.11346 | 35831 ft | 541 kts | 99° |
| 2026-04-24 22:45 | 39.87322 | -73.06580 | 35925 ft | 541 kts | 99° |
| 2026-04-24 22:46 | 39.85334 | -72.97182 | 35922 ft | 539 kts | 99° |
| 2026-04-24 22:46 | 39.83346 | -72.87827 | 35923 ft | 538 kts | 99° |
| 2026-04-24 22:47 | 39.81147 | -72.78545 | 35926 ft | 543 kts | 104° |
| 2026-04-24 22:47 | 39.78610 | -72.69274 | 35915 ft | 543 kts | 104° |
| 2026-04-24 22:48 | 39.76105 | -72.60078 | 35928 ft | 543 kts | 104° |
| 2026-04-24 22:48 | 39.73586 | -72.50850 | 35930 ft | 542 kts | 104° |
| 2026-04-24 22:49 | 39.71067 | -72.41648 | 35935 ft | 543 kts | 104° |
| 2026-04-24 22:49 | 39.68527 | -72.32396 | 35928 ft | 546 kts | 105° |
| 2026-04-24 22:50 | 39.65835 | -72.23218 | 35917 ft | 549 kts | 112° |
| 2026-04-24 22:50 | 39.61599 | -72.14943 | 35933 ft | 555 kts | 130° |
| 2026-04-24 22:51 | 39.56430 | -72.07558 | 35924 ft | 556 kts | 132° |
| 2026-04-24 22:51 | 39.53814 | -72.03876 | 35660 ft | 556 kts | 131° |
| 2026-04-24 22:51 | 39.51230 | -72.00256 | 35918 ft | 552 kts | 132° |
| 2026-04-24 22:52 | 39.45942 | -71.92886 | 35932 ft | 559 kts | 132° |
| 2026-04-24 22:52 | 39.40646 | -71.85535 | 35927 ft | 557 kts | 132° |
| 2026-04-24 22:53 | 39.35383 | -71.78252 | 35935 ft | 556 kts | 132° |
| 2026-04-24 22:53 | 39.30111 | -71.70975 | 35942 ft | 558 kts | 132° |